Time;durP1;ratioP1;P1;durP2;ratioP2;P2;SDS_P1;SDS_P2;PMS_P1;PMS_P2;Temp;Humidity;BMP_temperature;BMP_pressure;BME280_temperature;BME280_humidity;BME280_pressure;Samples;Min_cycle;Max_cycle;Signal;HPM_P1;HPM_P2
2023/04/20 00:01:09;;;;;;;8.43;7.07;;;;;;;11.65;51.93;94611.38;5026851;28;20336;-77
2023/04/20 00:03:36;;;;;;;7.78;6.72;;;;;;;11.63;52.02;94614.56;5036666;28;20032;-76
2023/04/20 00:06:02;;;;;;;8.80;7.05;;;;;;;11.57;52.26;94607.34;5039983;28;20115;-76
2023/04/20 00:08:27;;;;;;;9.52;6.57;;;;;;;11.59;52.13;94613.97;5039824;28;20163;-77
2023/04/20 00:10:53;;;;;;;9.13;7.50;;;;;;;11.55;52.46;94612.56;5023764;28;20048;-76
2023/04/20 00:13:18;;;;;;;9.75;7.28;;;;;;;11.48;52.25;94616.34;5028132;28;20025;-76
2023/04/20 00:15:44;;;;;;;10.73;7.43;;;;;;;11.37;52.12;94611.22;5034078;28;20344;-76
2023/04/20 00:18:10;;;;;;;9.50;6.70;;;;;;;11.32;52.35;94609.06;5031983;28;20522;-75
2023/04/20 00:20:36;;;;;;;11.00;7.03;;;;;;;11.39;52.13;94599.75;5029281;28;20033;-76
2023/04/20 00:23:01;;;;;;;10.55;7.25;;;;;;;11.47;52.01;94606.56;5033314;28;20036;-76
2023/04/20 00:25:27;;;;;;;8.05;7.18;;;;;;;11.45;52.21;94597.97;5041163;28;20029;-76
2023/04/20 00:27:52;;;;;;;7.47;6.70;;;;;;;11.38;52.25;94596.25;5017739;28;20065;-76
2023/04/20 00:30:17;;;;;;;9.10;7.30;;;;;;;11.51;51.95;94600.91;5025772;28;20116;-76
2023/04/20 00:32:43;;;;;;;9.45;8.38;;;;;;;11.45;52.39;94606.22;5039674;28;20035;-76
2023/04/20 00:35:09;;;;;;;9.82;7.03;;;;;;;11.41;52.91;94602.81;5026677;28;20306;-76
2023/04/20 00:37:34;;;;;;;7.78;6.97;;;;;;;11.43;52.92;94598.41;5023461;28;20037;-76
2023/04/20 00:40:00;;;;;;;8.15;6.25;;;;;;;11.46;52.86;94604.22;5036802;28;20041;-75
2023/04/20 00:42:25;;;;;;;7.68;6.88;;;;;;;11.38;53.06;94599.00;5044793;28;20025;-76
2023/04/20 00:44:50;;;;;;;9.35;6.70;;;;;;;11.23;53.63;94597.22;5044931;28;20036;-76
2023/04/20 00:47:16;;;;;;;7.05;6.20;;;;;;;11.32;53.63;94600.81;5025871;28;20033;-76
2023/04/20 00:49:41;;;;;;;9.00;6.97;;;;;;;11.33;53.85;94602.31;5031567;28;20044;-76
2023/04/20 00:52:07;;;;;;;8.38;6.78;;;;;;;11.14;54.18;94606.97;5042122;28;20091;-76
2023/04/20 00:54:33;;;;;;;10.85;7.50;;;;;;;11.14;54.53;94597.94;5026312;28;20028;-77
2023/04/20 00:56:59;;;;;;;8.57;6.75;;;;;;;11.23;54.20;94597.22;5035112;28;20515;-76
2023/04/20 00:59:24;;;;;;;10.07;6.90;;;;;;;11.07;54.07;94592.69;5014364;28;20084;-76
2023/04/20 01:01:50;;;;;;;10.13;7.88;;;;;;;10.97;54.52;94588.34;5038088;28;20037;-76
2023/04/20 01:04:16;;;;;;;8.70;7.18;;;;;;;11.08;54.70;94595.00;5006491;28;20106;-75
2023/04/20 01:06:41;;;;;;;9.35;7.97;;;;;;;11.15;54.34;94593.97;5026419;28;20040;-76
2023/04/20 01:09:07;;;;;;;9.43;8.02;;;;;;;11.20;53.90;94589.88;5010570;28;20454;-78
2023/04/20 01:11:32;;;;;;;13.43;7.60;;;;;;;11.19;53.71;94589.09;5012931;28;20079;-76
2023/04/20 01:13:58;;;;;;;9.30;8.07;;;;;;;11.10;54.28;94598.06;5029494;28;20040;-76
2023/04/20 01:16:23;;;;;;;9.82;7.53;;;;;;;11.12;54.31;94589.34;5032123;28;20026;-76
2023/04/20 01:18:49;;;;;;;8.65;7.60;;;;;;;11.05;54.41;94589.63;5035992;28;20115;-76
2023/04/20 01:21:16;;;;;;;10.30;7.50;;;;;;;11.06;54.15;94594.66;5032140;28;20021;-76
2023/04/20 01:23:42;;;;;;;9.27;7.50;;;;;;;10.92;54.56;94584.19;5039124;28;20044;-76
2023/04/20 01:26:09;;;;;;;8.38;7.38;;;;;;;10.79;55.10;94591.72;5028868;28;20044;-76
2023/04/20 01:28:35;;;;;;;9.25;7.72;;;;;;;11.00;54.41;94588.19;5033344;28;20040;-76
2023/04/20 01:31:02;;;;;;;11.23;7.55;;;;;;;11.01;54.25;94587.00;5036609;28;20496;-76
2023/04/20 01:33:27;;;;;;;10.48;7.82;;;;;;;11.06;54.21;94580.91;5036187;28;20518;-76
2023/04/20 01:35:53;;;;;;;9.23;7.03;;;;;;;11.01;54.42;94580.72;5028890;28;20025;-76
2023/04/20 01:38:20;;;;;;;7.75;6.93;;;;;;;11.07;53.99;94570.69;5045180;28;20037;-76
2023/04/20 01:40:45;;;;;;;9.00;6.95;;;;;;;11.06;53.83;94572.66;5041929;28;20116;-76
2023/04/20 01:43:11;;;;;;;10.98;7.40;;;;;;;11.07;54.19;94571.47;5023639;28;20113;-76
2023/04/20 01:45:37;;;;;;;10.15;7.82;;;;;;;10.99;54.73;94572.16;5022632;28;20026;-75
2023/04/20 01:48:02;;;;;;;9.43;7.53;;;;;;;11.07;54.56;94568.72;5021032;28;20068;-76
2023/04/20 01:50:28;;;;;;;8.57;7.28;;;;;;;10.99;54.66;94563.91;5009229;28;20475;-76
2023/04/20 01:52:53;;;;;;;10.75;6.82;;;;;;;11.04;54.50;94564.09;5043538;28;20021;-76
2023/04/20 01:55:19;;;;;;;10.93;7.50;;;;;;;11.12;54.19;94565.34;5038460;28;20468;-76
2023/04/20 01:57:44;;;;;;;9.27;7.80;;;;;;;11.15;53.81;94569.22;5022599;28;20032;-75
2023/04/20 02:00:10;;;;;;;8.20;7.40;;;;;;;11.18;54.33;94568.28;5022974;28;20080;-75
2023/04/20 02:02:36;;;;;;;8.10;7.18;;;;;;;11.22;54.05;94562.66;5044302;28;20025;-77
2023/04/20 02:05:01;;;;;;;10.07;7.15;;;;;;;11.25;54.15;94567.28;5023688;28;20408;-77
2023/04/20 02:07:27;;;;;;;10.15;7.50;;;;;;;11.25;54.08;94564.53;5028965;28;20033;-76
2023/04/20 02:09:52;;;;;;;10.80;7.80;;;;;;;11.26;54.07;94568.81;5022230;28;20029;-76
2023/04/20 02:12:18;;;;;;;9.23;7.13;;;;;;;11.23;54.09;94566.94;5021429;28;20554;-77
2023/04/20 02:14:43;;;;;;;8.60;7.00;;;;;;;11.22;54.21;94566.19;5036736;28;20086;-75
2023/04/20 02:17:09;;;;;;;10.95;7.28;;;;;;;11.25;53.94;94565.31;5033767;28;20075;-75
2023/04/20 02:19:35;;;;;;;10.80;7.38;;;;;;;11.15;54.06;94569.97;5033632;28;20044;-77
2023/04/20 02:22:01;;;;;;;9.40;7.65;;;;;;;11.17;54.01;94561.25;5026421;28;20126;-77
2023/04/20 02:24:26;;;;;;;9.50;6.90;;;;;;;11.05;54.41;94571.13;5027502;28;20025;-77
2023/04/20 02:26:51;;;;;;;9.93;6.32;;;;;;;11.00;54.45;94571.69;5039956;28;20170;-75
2023/04/20 02:29:17;;;;;;;8.38;7.25;;;;;;;11.02;54.11;94563.78;5031591;28;20419;-75
2023/04/20 02:31:42;;;;;;;9.82;7.88;;;;;;;10.90;54.50;94559.88;5039985;28;20500;-76
2023/04/20 02:34:09;;;;;;;8.77;7.10;;;;;;;10.90;54.59;94570.88;5028598;28;20352;-76
2023/04/20 02:36:35;;;;;;;9.18;7.28;;;;;;;10.79;55.01;94564.22;5033993;28;20033;-76
2023/04/20 02:39:00;;;;;;;7.70;6.90;;;;;;;10.65;55.41;94560.00;5041684;28;20039;-76
2023/04/20 02:41:25;;;;;;;9.65;7.10;;;;;;;10.79;55.13;94561.47;5043047;28;20064;-76
2023/04/20 02:43:51;;;;;;;8.38;7.45;;;;;;;10.89;54.58;94565.81;5026672;28;20368;-77
2023/04/20 02:46:17;;;;;;;9.68;7.28;;;;;;;10.85;54.66;94568.72;5025300;28;20026;-75
2023/04/20 02:48:42;;;;;;;8.75;7.30;;;;;;;10.89;54.71;94571.31;5026828;28;20057;-76
2023/04/20 02:51:07;;;;;;;10.20;7.30;;;;;;;10.94;54.52;94565.25;5042134;28;20462;-76
2023/04/20 02:53:33;;;;;;;9.50;7.65;;;;;;;10.93;54.45;94562.94;5024690;28;20026;-76
2023/04/20 02:55:59;;;;;;;10.20;7.75;;;;;;;10.87;54.50;94565.50;5039512;28;20029;-77
2023/04/20 02:58:24;;;;;;;8.20;6.78;;;;;;;10.84;54.79;94560.91;5037343;28;20411;-77
2023/04/20 03:00:50;;;;;;;8.52;7.07;;;;;;;10.88;54.50;94567.78;5037061;28;20491;-77
2023/04/20 03:03:16;;;;;;;8.30;6.93;;;;;;;10.96;54.57;94570.31;5026663;28;20025;-77
2023/04/20 03:05:42;;;;;;;9.15;7.03;;;;;;;10.90;54.51;94570.88;5024911;28;20110;-77
2023/04/20 03:08:08;;;;;;;8.50;7.40;;;;;;;10.78;55.08;94557.97;5024551;28;20025;-77
2023/04/20 03:10:33;;;;;;;9.63;7.13;;;;;;;10.87;54.74;94568.25;5026743;28;20052;-76
2023/04/20 03:12:59;;;;;;;10.77;7.22;;;;;;;10.95;54.32;94564.03;5020499;28;20645;-76
2023/04/20 03:15:24;;;;;;;9.07;7.35;;;;;;;11.00;54.24;94566.19;5026134;28;20032;-76
2023/04/20 03:17:50;;;;;;;8.45;7.32;;;;;;;10.98;54.01;94559.63;5042211;28;20108;-76
2023/04/20 03:20:17;;;;;;;10.02;7.68;;;;;;;10.92;54.14;94567.69;5029900;28;20017;-76
2023/04/20 03:22:43;;;;;;;13.18;7.85;;;;;;;11.00;54.03;94570.94;5027034;28;20029;-76
2023/04/20 03:25:09;;;;;;;8.77;7.25;;;;;;;10.92;54.04;94559.44;5043793;28;20056;-75
2023/04/20 03:27:34;;;;;;;11.52;7.53;;;;;;;10.86;54.21;94567.50;5036760;28;20061;-76
2023/04/20 03:29:59;;;;;;;8.15;7.35;;;;;;;10.94;54.39;94572.72;5010745;28;20048;-77
2023/04/20 03:32:26;;;;;;;9.18;7.32;;;;;;;10.87;54.44;94569.03;5029599;28;20447;-76
2023/04/20 03:34:51;;;;;;;8.20;7.10;;;;;;;10.93;54.53;94573.94;5022705;28;20021;-76
2023/04/20 03:37:17;;;;;;;9.60;7.13;;;;;;;10.88;54.46;94567.78;5026568;28;20044;-76
2023/04/20 03:39:42;;;;;;;8.48;6.97;;;;;;;11.00;54.23;94573.69;5043064;28;20119;-77
2023/04/20 03:42:08;;;;;;;10.45;7.50;;;;;;;10.94;54.29;94573.50;5037950;28;20026;-77
2023/04/20 03:44:33;;;;;;;9.18;7.03;;;;;;;10.92;54.48;94570.44;5027165;28;20025;-76
2023/04/20 03:46:59;;;;;;;7.95;6.93;;;;;;;10.95;54.49;94571.50;5046037;28;20511;-77
2023/04/20 03:49:24;;;;;;;9.52;7.75;;;;;;;10.99;54.35;94563.91;5034198;28;20028;-76
2023/04/20 03:51:50;;;;;;;9.43;7.93;;;;;;;11.04;54.21;94568.81;5021891;28;20033;-77
2023/04/20 03:54:16;;;;;;;9.23;7.30;;;;;;;11.03;54.23;94572.81;5028676;28;20455;-77
2023/04/20 03:56:43;;;;;;;9.00;7.45;;;;;;;11.03;54.35;94570.06;5033259;28;20030;-76
2023/04/20 03:59:08;;;;;;;9.45;7.88;;;;;;;11.01;54.46;94576.00;5020666;28;20060;-77
2023/04/20 04:01:36;;;;;;;9.77;7.18;;;;;;;11.00;54.52;94576.44;5037706;28;20123;-77
2023/04/20 04:04:01;;;;;;;11.30;7.80;;;;;;;11.05;54.52;94570.34;5032878;28;20120;-77
2023/04/20 04:06:27;;;;;;;7.95;7.15;;;;;;;11.10;54.18;94576.06;5024793;28;20507;-77
2023/04/20 04:08:52;;;;;;;9.95;8.02;;;;;;;11.11;54.21;94574.06;5023368;28;20041;-76
2023/04/20 04:11:17;;;;;;;8.75;7.22;;;;;;;11.08;54.23;94575.75;5032627;28;20025;-77
2023/04/20 04:13:43;;;;;;;8.25;7.32;;;;;;;11.19;53.86;94580.09;5027424;28;20544;-77
2023/04/20 04:16:08;;;;;;;9.02;7.97;;;;;;;11.19;53.70;94580.84;5023826;28;20041;-77
2023/04/20 04:18:34;;;;;;;10.95;7.55;;;;;;;11.22;53.83;94582.69;5031803;28;20029;-77
2023/04/20 04:21:00;;;;;;;10.38;7.80;;;;;;;11.20;53.80;94582.38;5046047;28;20036;-78
2023/04/20 04:23:25;;;;;;;9.55;7.10;;;;;;;11.25;53.74;94578.28;5022818;28;20472;-77
2023/04/20 04:25:50;;;;;;;8.20;6.88;;;;;;;11.24;53.95;94583.03;5009642;28;20084;-76
2023/04/20 04:28:16;;;;;;;10.52;8.30;;;;;;;11.28;53.95;94582.88;5028431;28;20099;-76
2023/04/20 04:30:42;;;;;;;9.68;7.63;;;;;;;11.30;54.11;94586.72;5044304;28;20021;-77
2023/04/20 04:33:08;;;;;;;9.80;7.85;;;;;;;11.31;54.01;94593.00;5023918;28;20095;-77
2023/04/20 04:35:34;;;;;;;11.52;7.88;;;;;;;11.24;53.75;94587.75;5025892;28;20587;-77
2023/04/20 04:38:00;;;;;;;8.45;7.45;;;;;;;11.35;53.71;94599.88;5032726;28;20060;-77
2023/04/20 04:40:25;;;;;;;10.75;8.25;;;;;;;11.34;54.00;94592.84;5026483;28;20894;-76
2023/04/20 04:42:51;;;;;;;8.73;7.70;;;;;;;11.34;53.88;94592.84;5027490;28;20337;-78
2023/04/20 04:45:17;;;;;;;10.88;8.32;;;;;;;11.31;54.17;94590.25;5037154;28;20032;-79
2023/04/20 04:47:42;;;;;;;10.20;7.85;;;;;;;11.37;53.89;94596.69;5024391;28;20454;-79
2023/04/20 04:50:09;;;;;;;10.45;8.32;;;;;;;11.41;53.95;94600.88;5046581;28;20400;-79
2023/04/20 04:52:35;;;;;;;11.88;8.10;;;;;;;11.39;53.98;94600.53;5040127;28;20103;-77
2023/04/20 04:55:01;;;;;;;11.25;8.38;;;;;;;11.34;54.25;94598.34;5006895;28;20137;-80
2023/04/20 04:57:27;;;;;;;10.02;8.27;;;;;;;11.35;53.90;94605.38;5030540;28;20089;-77
2023/04/20 04:59:52;;;;;;;9.90;7.90;;;;;;;11.35;53.97;94602.63;5042909;28;20450;-78
2023/04/20 05:02:18;;;;;;;11.15;8.77;;;;;;;11.33;54.16;94607.06;5040375;28;20017;-79
2023/04/20 05:04:43;;;;;;;10.88;8.93;;;;;;;11.28;54.22;94613.91;5013395;28;20033;-79
2023/04/20 05:07:13;;;;;;;14.85;9.18;;;;;;;11.32;54.29;94613.78;5042740;28;20078;-78
2023/04/20 05:09:38;;;;;;;14.10;8.95;;;;;;;11.34;54.24;94617.63;5024529;28;20047;-79
2023/04/20 05:12:05;;;;;;;12.55;9.20;;;;;;;11.28;54.32;94607.66;5026412;28;20029;-79
2023/04/20 05:14:31;;;;;;;11.68;8.68;;;;;;;11.38;54.05;94612.75;5024456;28;20029;-78
2023/04/20 05:16:57;;;;;;;10.88;9.55;;;;;;;11.36;54.25;94612.44;5027013;28;20030;-78
2023/04/20 05:19:23;;;;;;;11.60;8.98;;;;;;;11.41;54.14;94611.88;5029145;28;20542;-78
2023/04/20 05:21:49;;;;;;;13.25;9.52;;;;;;;11.31;54.27;94606.75;5031948;28;20116;-79
2023/04/20 05:24:16;;;;;;;13.35;9.45;;;;;;;11.42;54.23;94615.38;5026232;28;20490;-78
2023/04/20 05:26:42;;;;;;;17.05;9.40;;;;;;;11.47;53.72;94612.06;5026847;28;20033;-77
2023/04/20 05:29:07;;;;;;;12.00;9.35;;;;;;;11.55;53.88;94618.06;5032506;28;20021;-77
2023/04/20 05:31:32;;;;;;;13.15;9.57;;;;;;;11.53;53.77;94615.75;5039039;28;20072;-79
2023/04/20 05:33:58;;;;;;;11.90;9.68;;;;;;;11.57;53.86;94615.59;5044199;28;20459;-79
2023/04/20 05:36:23;;;;;;;13.25;9.48;;;;;;;11.59;53.55;94624.19;5042333;28;20029;-79
2023/04/20 05:38:49;;;;;;;14.25;9.57;;;;;;;11.48;53.53;94619.09;5044221;28;20021;-78
2023/04/20 05:41:14;;;;;;;13.40;9.60;;;;;;;11.40;53.03;94618.56;5042237;28;20526;-77
2023/04/20 05:43:40;;;;;;;13.20;9.90;;;;;;;11.48;53.00;94619.09;5042945;28;20032;-77
2023/04/20 05:46:05;;;;;;;12.60;10.15;;;;;;;11.55;53.30;94624.31;5042192;28;20044;-79
2023/04/20 05:48:31;;;;;;;13.43;9.82;;;;;;;11.58;53.50;94625.41;5025876;28;20462;-79
2023/04/20 05:50:57;;;;;;;12.38;9.93;;;;;;;11.59;53.54;94624.19;5044243;28;20115;-78
2023/04/20 05:53:22;;;;;;;11.75;10.13;;;;;;;11.53;53.83;94628.75;5026241;28;20055;-79
2023/04/20 05:55:47;;;;;;;15.25;9.50;;;;;;;11.52;53.86;94622.47;5043397;28;20480;-77
2023/04/20 05:58:13;;;;;;;16.50;10.35;;;;;;;11.60;53.98;94622.97;5026741;28;20175;-77
2023/04/20 06:00:39;;;;;;;12.40;10.55;;;;;;;11.61;54.35;94630.78;5046222;28;20083;-77
2023/04/20 06:03:05;;;;;;;13.13;10.23;;;;;;;11.61;54.68;94621.75;5045840;28;20483;-78
2023/04/20 06:05:30;;;;;;;13.15;11.05;;;;;;;11.70;54.43;94621.81;5046376;28;20418;-79
2023/04/20 06:07:55;;;;;;;14.73;10.77;;;;;;;11.74;54.09;94627.16;5052844;28;20052;-78
2023/04/20 06:10:21;;;;;;;13.15;10.20;;;;;;;11.68;53.73;94622.25;5047865;28;20032;-78
2023/04/20 06:12:46;;;;;;;14.45;10.88;;;;;;;11.69;53.75;94623.78;5045123;28;20043;-78
2023/04/20 06:15:12;;;;;;;12.00;10.05;;;;;;;11.70;53.70;94619.06;5045503;28;20041;-78
2023/04/20 06:17:39;;;;;;;17.38;11.35;;;;;;;11.72;54.33;94629.63;5046174;28;20025;-77
2023/04/20 06:20:09;;;;;;;13.30;10.55;;;;;;;11.83;53.87;94628.03;5045270;28;20101;-78
2023/04/20 06:22:35;;;;;;;12.88;10.50;;;;;;;11.80;53.82;94623.38;5046275;28;20541;-77
2023/04/20 06:25:01;;;;;;;13.85;10.70;;;;;;;11.87;53.60;94633.38;5045880;28;20029;-78
2023/04/20 06:27:27;;;;;;;16.35;12.60;;;;;;;11.80;53.91;94628.13;5045533;28;20487;-77
2023/04/20 06:29:53;;;;;;;14.20;11.90;;;;;;;11.86;53.92;94626.34;5047900;28;20112;-77
2023/04/20 06:32:19;;;;;;;20.98;14.88;;;;;;;11.87;54.29;94631.41;5044664;28;20025;-79
2023/04/20 06:34:46;;;;;;;19.80;12.50;;;;;;;11.88;54.59;94632.94;5045841;28;20029;-79
2023/04/20 06:37:12;;;;;;;16.33;12.10;;;;;;;11.95;53.89;94632.66;5045495;28;20068;-78
2023/04/20 06:39:37;;;;;;;15.82;12.75;;;;;;;12.03;54.06;94633.13;5045667;28;20060;-79
2023/04/20 06:42:02;;;;;;;14.38;10.75;;;;;;;11.89;54.23;94641.97;5046607;28;20550;-78
2023/04/20 06:44:28;;;;;;;15.38;12.55;;;;;;;11.63;55.98;94638.59;5045400;28;20021;-78
2023/04/20 06:46:53;;;;;;;16.40;11.40;;;;;;;11.48;56.84;94634.84;5045309;28;20525;-78
2023/04/20 06:49:19;;;;;;;15.63;12.35;;;;;;;11.51;56.99;94647.69;5046250;28;20031;-78
2023/04/20 06:51:45;;;;;;;17.17;11.57;;;;;;;11.54;57.05;94652.31;5046977;28;20039;-78
2023/04/20 06:54:10;;;;;;;17.58;12.77;;;;;;;11.69;56.92;94645.03;5044616;28;20021;-78
2023/04/20 06:56:35;;;;;;;19.02;12.50;;;;;;;11.72;56.81;94657.16;5045434;28;20220;-79
2023/04/20 06:59:01;;;;;;;18.23;13.43;;;;;;;11.69;57.17;94651.31;5028689;28;20048;-79
2023/04/20 07:01:26;;;;;;;15.75;13.50;;;;;;;11.78;57.04;94649.84;5046476;28;20434;-80
2023/04/20 07:03:52;;;;;;;15.15;11.93;;;;;;;11.87;56.99;94650.69;5051747;28;20115;-77
2023/04/20 07:06:17;;;;;;;14.05;11.23;;;;;;;11.83;57.15;94647.28;5046436;28;20013;-77
2023/04/20 07:08:43;;;;;;;15.80;12.10;;;;;;;12.00;57.21;94658.09;5046428;28;20028;-76
2023/04/20 07:11:08;;;;;;;18.58;12.32;;;;;;;12.00;57.06;94663.59;5027570;28;20029;-76
2023/04/20 07:13:33;;;;;;;15.10;12.07;;;;;;;12.01;56.99;94657.63;5046355;28;20025;-76
2023/04/20 07:15:59;;;;;;;16.10;13.07;;;;;;;12.12;56.58;94668.22;5046004;28;20029;-77
2023/04/20 07:18:24;;;;;;;16.27;11.45;;;;;;;12.16;56.73;94660.59;5028375;28;20079;-77
2023/04/20 07:20:51;;;;;;;15.68;11.77;;;;;;;12.29;56.42;94666.00;5044347;28;20029;-76
2023/04/20 07:23:16;;;;;;;13.70;10.98;;;;;;;12.36;56.16;94669.22;5044985;28;20487;-76
2023/04/20 07:25:41;;;;;;;13.55;11.60;;;;;;;12.50;56.05;94665.13;5044796;28;20036;-75
2023/04/20 07:28:07;;;;;;;12.95;11.13;;;;;;;12.54;55.99;94663.00;5044519;28;20091;-75
2023/04/20 07:30:32;;;;;;;16.40;11.65;;;;;;;12.65;55.60;94657.81;5042062;28;20025;-77
2023/04/20 07:32:58;;;;;;;15.40;11.75;;;;;;;12.71;55.63;94653.22;5043501;28;20051;-77
2023/04/20 07:35:23;;;;;;;18.77;11.77;;;;;;;12.83;55.18;94656.31;5026714;28;20025;-77
2023/04/20 07:37:48;;;;;;;13.40;11.63;;;;;;;12.88;55.30;94652.94;5044110;28;20079;-76
2023/04/20 07:40:15;;;;;;;12.68;10.52;;;;;;;13.01;54.72;94653.56;5044650;28;20049;-76
2023/04/20 07:42:41;;;;;;;15.75;11.07;;;;;;;13.14;54.80;94656.19;5043843;28;20061;-76
2023/04/20 07:45:07;;;;;;;13.73;10.80;;;;;;;13.28;54.72;94645.31;5027493;28;20055;-77
2023/04/20 07:47:33;;;;;;;12.75;10.60;;;;;;;13.54;52.51;94658.78;5027480;28;20454;-75
2023/04/20 07:49:59;;;;;;;13.02;9.77;;;;;;;13.47;51.95;94648.81;5043957;28;20036;-76
2023/04/20 07:52:24;;;;;;;11.10;9.93;;;;;;;13.67;50.92;94653.09;5045576;28;20414;-75
2023/04/20 07:54:52;;;;;;;15.27;10.77;;;;;;;13.86;50.67;94651.03;5043872;28;20031;-76
2023/04/20 07:57:19;;;;;;;12.73;10.00;;;;;;;14.04;50.67;94651.72;5049466;28;20121;-76
2023/04/20 07:59:45;;;;;;;11.95;10.45;;;;;;;14.19;49.96;94651.06;5045241;28;20049;-75
2023/04/20 08:02:11;;;;;;;14.02;10.38;;;;;;;14.16;50.18;94646.47;5044304;28;20040;-76
2023/04/20 08:04:36;;;;;;;14.68;10.65;;;;;;;14.24;50.03;94645.69;5027197;28;20033;-77
2023/04/20 08:07:02;;;;;;;13.32;9.57;;;;;;;14.29;49.45;94647.03;5044141;28;20053;-78
2023/04/20 08:09:28;;;;;;;13.63;9.73;;;;;;;14.28;49.69;94651.81;5045368;28;20047;-75
2023/04/20 08:11:54;;;;;;;12.05;9.15;;;;;;;14.22;49.32;94633.53;5043113;28;20033;-77
2023/04/20 08:14:19;;;;;;;11.45;9.68;;;;;;;14.21;49.36;94656.91;5045412;28;20028;-76
2023/04/20 08:16:44;;;;;;;10.35;9.07;;;;;;;13.99;49.18;94649.63;5043497;28;20373;-77
2023/04/20 08:19:10;;;;;;;10.02;8.77;;;;;;;13.91;49.91;94650.41;5045278;28;20472;-77
2023/04/20 08:21:39;;;;;;;10.05;9.02;;;;;;;14.00;49.21;94653.91;5042475;28;20051;-77
2023/04/20 08:24:05;;;;;;;12.07;9.32;;;;;;;14.00;49.68;94655.91;5045406;28;20025;-76
2023/04/20 08:26:31;;;;;;;13.10;9.20;;;;;;;13.91;49.32;94653.94;5026883;28;20029;-76
2023/04/20 08:28:58;;;;;;;14.07;9.55;;;;;;;13.92;49.78;94655.47;5043150;28;20021;-77
2023/04/20 08:31:23;;;;;;;15.10;10.48;;;;;;;13.79;49.48;94654.91;5043948;28;20055;-76
2023/04/20 08:33:49;;;;;;;15.23;10.38;;;;;;;13.53;49.68;94660.78;5042994;28;20490;-76
2023/04/20 08:36:14;;;;;;;17.67;11.65;;;;;;;13.56;49.84;94659.09;5043833;28;20029;-75
2023/04/20 08:38:40;;;;;;;16.77;10.75;;;;;;;13.69;49.53;94654.13;5042963;28;20017;-75
2023/04/20 08:41:06;;;;;;;17.23;12.45;;;;;;;13.76;49.36;94666.84;5026838;28;20090;-75
2023/04/20 08:43:32;;;;;;;20.83;13.23;;;;;;;13.67;49.43;94655.84;5043053;28;20025;-77
2023/04/20 08:45:59;;;;;;;14.80;11.80;;;;;;;13.68;49.37;94660.91;5026137;28;20035;-76
2023/04/20 08:48:27;;;;;;;14.75;10.38;;;;;;;13.68;48.93;94651.84;5043845;28;20029;-76
2023/04/20 08:50:53;;;;;;;17.35;11.63;;;;;;;13.63;49.14;94658.00;5026389;28;20032;-76
2023/04/20 08:53:19;;;;;;;16.52;11.70;;;;;;;13.77;48.87;94654.59;5048043;28;20500;-76
2023/04/20 08:55:44;;;;;;;13.38;10.55;;;;;;;13.48;49.18;94653.13;5026410;28;20027;-76
2023/04/20 08:58:10;;;;;;;14.75;10.82;;;;;;;13.52;49.27;94661.22;5044408;28;20049;-76
2023/04/20 09:00:45;;;;;;;14.75;11.52;;;;;;;13.37;49.39;94657.59;5044098;28;20032;-76
2023/04/20 09:03:10;;;;;;;14.23;10.63;;;;;;;13.53;48.97;94655.28;5044410;28;20052;-76
2023/04/20 09:05:38;;;;;;;13.02;10.43;;;;;;;13.52;49.42;94659.22;5044616;28;20125;-75
2023/04/20 09:08:04;;;;;;;15.25;11.02;;;;;;;13.20;50.06;94657.09;5044333;28;20021;-77
2023/04/20 09:10:50;;;;;;;15.20;9.75;;;;;;;13.24;50.34;94658.50;5044657;28;20106;-77
2023/04/20 09:13:22;;;;;;;15.32;10.40;;;;;;;13.38;50.18;94656.34;5043704;28;20044;-77
2023/04/20 09:15:47;;;;;;;11.48;10.13;;;;;;;13.40;49.94;94654.66;5044289;28;20025;-77
2023/04/20 09:18:14;;;;;;;12.02;9.55;;;;;;;13.19;50.48;94661.84;5044604;28;20104;-77
2023/04/20 09:20:39;;;;;;;12.52;9.80;;;;;;;13.34;50.35;94659.25;5025367;28;20044;-77
2023/04/20 09:23:11;;;;;;;12.77;9.65;;;;;;;13.35;50.14;94644.22;5043202;28;20029;-75
2023/04/20 09:25:37;;;;;;;12.05;9.73;;;;;;;13.56;49.60;94653.56;5043736;28;20032;-76
2023/04/20 09:28:03;;;;;;;13.52;9.60;;;;;;;13.63;49.34;94644.19;5026012;28;20075;-75
2023/04/20 09:30:44;;;;;;;13.77;10.43;;;;;;;13.64;49.74;94640.94;5043735;28;20372;-76
2023/04/20 09:33:11;;;;;;;12.10;10.25;;;;;;;13.61;49.86;94635.59;5046248;28;20495;-76
2023/04/20 09:35:44;;;;;;;15.60;10.13;;;;;;;13.93;49.46;94640.41;5046841;28;20033;-76
2023/04/20 09:38:15;;;;;;;11.95;9.85;;;;;;;14.19;49.08;94648.31;5046346;28;20025;-76
2023/04/20 09:40:41;;;;;;;12.30;8.98;;;;;;;14.70;47.36;94639.16;5046890;28;20180;-75
2023/04/20 09:43:18;;;;;;;10.85;9.75;;;;;;;14.84;47.35;94636.44;5046811;28;20021;-77
2023/04/20 09:45:43;;;;;;;11.48;9.80;;;;;;;14.99;47.11;94636.50;5048200;28;20114;-75
2023/04/20 09:48:09;;;;;;;12.63;10.20;;;;;;;15.10;46.89;94633.19;5051669;28;20057;-74
2023/04/20 09:50:36;;;;;;;11.95;9.52;;;;;;;15.18;46.36;94633.59;5046687;28;20025;-75
2023/04/20 09:53:03;;;;;;;11.85;9.48;;;;;;;15.29;45.26;94642.88;5047901;28;20035;-77
2023/04/20 09:55:30;;;;;;;11.98;10.07;;;;;;;15.26;45.55;94640.31;5046163;28;20025;-77
2023/04/20 09:57:56;;;;;;;13.23;10.73;;;;;;;15.37;45.47;94627.44;5046252;28;20041;-77
2023/04/20 10:00:21;;;;;;;10.95;9.23;;;;;;;15.92;44.12;94626.13;5046013;28;20025;-76
2023/04/20 10:02:47;;;;;;;12.95;9.43;;;;;;;16.28;43.66;94635.25;5047611;28;20044;-75
2023/04/20 10:05:13;;;;;;;10.70;8.32;;;;;;;16.48;42.68;94629.75;5045944;28;20534;-75
2023/04/20 10:07:39;;;;;;;12.55;10.55;;;;;;;16.70;41.19;94621.78;5047914;28;20028;-75
2023/04/20 10:10:05;;;;;;;10.90;9.18;;;;;;;16.71;41.40;94625.31;5045876;28;20160;-76
2023/04/20 10:12:32;;;;;;;11.00;9.15;;;;;;;16.75;41.16;94623.09;5045960;28;20036;-77
2023/04/20 10:14:59;;;;;;;10.18;9.05;;;;;;;16.89;41.13;94615.94;5046857;28;20059;-77
2023/04/20 10:17:32;;;;;;;11.90;9.40;;;;;;;16.79;41.57;94609.75;5046822;28;20091;-76
2023/04/20 10:19:58;;;;;;;10.13;9.00;;;;;;;17.08;40.88;94608.84;5045844;28;20511;-76
2023/04/20 10:22:33;;;;;;;11.90;9.00;;;;;;;17.39;40.71;94610.97;5045576;28;20083;-76
2023/04/20 10:25:01;;;;;;;11.18;9.02;;;;;;;17.25;40.83;94611.81;5046054;28;20383;-76
2023/04/20 10:27:27;;;;;;;12.23;9.88;;;;;;;17.10;40.36;94606.38;5029807;28;20108;-76
2023/04/20 10:29:52;;;;;;;17.00;9.25;;;;;;;17.40;40.52;94608.94;5028721;28;20095;-76
2023/04/20 10:32:25;;;;;;;10.65;8.95;;;;;;;17.19;40.46;94608.97;5047565;28;20071;-77
2023/04/20 10:35:05;;;;;;;12.20;9.38;;;;;;;17.35;40.05;94607.63;5045291;28;20033;-76
2023/04/20 10:37:30;;;;;;;12.55;8.82;;;;;;;17.40;40.46;94611.72;5029483;28;20040;-76
2023/04/20 10:39:56;;;;;;;11.75;10.43;;;;;;;17.25;40.70;94604.25;5045208;28;20033;-76
2023/04/20 10:42:21;;;;;;;10.73;8.70;;;;;;;17.18;40.41;94598.34;5051219;28;20487;-76
2023/04/20 10:44:51;;;;;;;10.07;8.63;;;;;;;17.25;40.76;94603.47;5046264;28;20026;-76
2023/04/20 10:47:17;;;;;;;10.65;8.93;;;;;;;17.55;40.55;94606.06;5044759;28;20126;-76
2023/04/20 10:49:42;;;;;;;9.73;8.05;;;;;;;18.17;38.38;94610.16;5045936;28;20052;-77
2023/04/20 10:52:08;;;;;;;13.02;7.82;;;;;;;18.33;38.94;94597.63;5044856;28;20056;-75
2023/04/20 10:54:38;;;;;;;8.95;7.30;;;;;;;18.49;39.27;94596.97;5045553;28;20064;-75
2023/04/20 10:57:04;;;;;;;10.75;7.88;;;;;;;18.48;38.68;94595.47;5028552;28;20029;-77
2023/04/20 10:59:29;;;;;;;9.23;8.27;;;;;;;18.59;38.55;94598.31;5045369;28;20075;-77
2023/04/20 11:01:55;;;;;;;9.75;7.65;;;;;;;18.74;37.34;94601.69;5046835;28;20426;-77
2023/04/20 11:04:34;;;;;;;8.40;7.43;;;;;;;19.20;36.63;94602.66;5028361;28;20583;-77
2023/04/20 11:07:07;;;;;;;8.40;7.55;;;;;;;19.70;35.82;94593.69;5045635;28;20449;-76
2023/04/20 11:09:33;;;;;;;8.82;7.13;;;;;;;20.14;35.29;94585.34;5044886;28;20537;-77
2023/04/20 11:12:00;;;;;;;9.18;6.95;;;;;;;20.66;34.14;94597.97;5044935;28;20032;-75
2023/04/20 11:14:26;;;;;;;9.68;6.80;;;;;;;21.29;33.11;94593.69;5046194;28;20021;-77
2023/04/20 11:16:53;;;;;;;9.32;6.40;;;;;;;21.97;32.04;94586.44;5046541;28;20029;-75
2023/04/20 11:19:23;;;;;;;7.82;6.90;;;;;;;22.25;31.43;94577.81;5028405;28;20558;-76
2023/04/20 11:21:48;;;;;;;8.98;6.38;;;;;;;21.84;31.96;94580.66;5044484;28;20028;-76